This is the latest recevied weather packets stored in our database for station/object K0QJ. If no packets are shown the sender has not sent any weather packets the latest 1 day(s).
| Time | Temp. | Humidity | Pressure | Rain* | Wind** | Luminosity | Snow |
|---|---|---|---|---|---|---|---|
| 1777988578 | 8.33° C | 94% | 1011 hPa | 1.78 mm | 0 m/s | 20 W/m² | - |
| 1777988274 | 8.33° C | 94% | 1010.7 hPa | 0 mm | 0 m/s | 19 W/m² | - |
| 1777987971 | 8.33° C | 94% | 1011.3 hPa | 0 mm | 0.89 m/s, 347° | 9 W/m² | - |
| 1777987666 | 8.33° C | 93% | 1010.9 hPa | 0 mm | 0 m/s | 8 W/m² | - |
| 1777987364 | 8.33° C | 93% | 1010.6 hPa | 6.1 mm | 0 m/s | 6 W/m² | - |
| 1777987061 | 8.89° C | 93% | 1010.2 hPa | 7.11 mm | 0 m/s | 16 W/m² | - |
| 1777986758 | 8.89° C | 93% | 1010.2 hPa | 0 mm | 0.45 m/s, 286° | 22 W/m² | - |
| 1777986456 | 8.89° C | 93% | 1011.1 hPa | 0 mm | 0.45 m/s, 11° | 9 W/m² | - |
| 1777986154 | 8.33° C | 93% | 1010.8 hPa | 0 mm | 0 m/s | 2 W/m² | - |
| 1777985851 | 8.33° C | 92% | 1009.7 hPa | 0 mm | 0 m/s | 5 W/m² | - |
| 1777985548 | 8.33° C | 92% | 1008.9 hPa | 0 mm | 0 m/s | 9 W/m² | - |
| 1777985245 | 8.33° C | 92% | 1008.7 hPa | 0 mm | 0 m/s | 22 W/m² | - |
| 1777984942 | 8.33° C | 92% | 1008.7 hPa | 0 mm | 0.89 m/s, 24° | 28 W/m² | - |
| 1777984637 | 8.33° C | 92% | 1008.7 hPa | 0 mm | 0 m/s | 36 W/m² | - |
| 1777984334 | 8.33° C | 91% | 1008.5 hPa | 1.78 mm | 0 m/s | 32 W/m² | - |
| 1777984031 | 8.33° C | 91% | 1008.4 hPa | 1.78 mm | 0 m/s | 29 W/m² | - |
| 1777983728 | 8.33° C | 91% | 1009.2 hPa | 0 mm | 0 m/s | 11 W/m² | - |
| 1777983425 | 8.33° C | 90% | 1009 hPa | 1.27 mm | 0.45 m/s, 80° | 5 W/m² | - |
| 1777983121 | 8.33° C | 90% | 1008.9 hPa | 1.27 mm | 0 m/s | 2 W/m² | - |
| 1777982818 | 8.33° C | 89% | 1008.4 hPa | 0 mm | 0 m/s | 3 W/m² | - |
| 1777982514 | 8.33° C | 89% | 1008.7 hPa | 0 mm | 0 m/s | 4 W/m² | - |
| 1777982207 | 8.33° C | 88% | 1008.6 hPa | 0 mm | 0 m/s | 3 W/m² | - |
| 1777981906 | 8.33° C | 87% | 1008.3 hPa | 0 mm | 0 m/s | 5 W/m² | - |
| 1777981602 | 8.89° C | 86% | 1008.1 hPa | 1.78 mm | 0 m/s | 4 W/m² | - |
| 1777981299 | 8.89° C | 84% | 1008.4 hPa | 3.05 mm | 0.45 m/s, 14° | 2 W/m² | - |
* Rain latest hour (hover to see other rain measurements)
** Current wind speed in m/s (hover to see current wind gust speed)